Time,TemperatureF,DewpointF,PressureIn,WindDirection,WindDirectionDegrees,WindSpeedMPH,WindSpeedGustMPH,Humidity,HourlyPrecipIn,Conditions,Clouds,dailyrainin,SoftwareType,DateUTC
2013-06-29 00:00:00,67.0,63.0,29.63,West,263,0.0,0.0,88,0.00,,,0.00,weatherlink.com 1.10,2013-06-29 04:00:00,
2013-06-29 00:15:00,66.6,63.0,29.63,West,274,0.0,1.0,89,0.00,,,0.00,weatherlink.com 1.10,2013-06-29 04:15:00,
2013-06-29 00:30:00,66.2,63.0,29.63,West,274,0.0,0.0,89,0.00,,,0.00,weatherlink.com 1.10,2013-06-29 04:30:00,
2013-06-29 00:45:00,65.8,63.0,29.63,West,274,0.0,0.0,91,0.00,,,0.00,weatherlink.com 1.10,2013-06-29 04:45:00,
2013-06-29 01:00:00,65.5,63.0,29.62,West,274,0.0,0.0,92,0.00,,,0.00,weatherlink.com 1.10,2013-06-29 05:00:00,
2013-06-29 01:15:00,65.3,63.0,29.62,West,274,0.0,0.0,93,0.00,,,0.00,weatherlink.com 1.10,2013-06-29 05:15:00,
2013-06-29 01:30:00,65.1,63.0,29.62,West,274,0.0,0.0,93,0.00,,,0.00,weatherlink.com 1.10,2013-06-29 05:30:00,
2013-06-29 01:45:00,64.9,63.0,29.62,West,274,0.0,0.0,94,0.00,,,0.00,weatherlink.com 1.10,2013-06-29 05:45:00,
2013-06-29 02:00:00,64.6,63.0,29.61,West,274,0.0,0.0,94,0.00,,,0.00,weatherlink.com 1.10,2013-06-29 06:00:00,
2013-06-29 02:15:00,64.3,63.0,29.61,West,274,0.0,0.0,95,0.00,,,0.00,weatherlink.com 1.10,2013-06-29 06:15:00,
2013-06-29 02:30:00,64.1,63.0,29.61,West,274,0.0,0.0,96,0.00,,,0.00,weatherlink.com 1.10,2013-06-29 06:30:00,
2013-06-29 02:45:00,63.7,63.0,29.61,West,274,0.0,0.0,96,0.00,,,0.00,weatherlink.com 1.10,2013-06-29 06:45:00,
2013-06-29 03:00:00,63.4,62.0,29.61,West,274,0.0,0.0,96,0.00,,,0.00,weatherlink.com 1.10,2013-06-29 07:00:00,
2013-06-29 03:15:00,63.4,63.0,29.61,West,274,0.0,0.0,97,0.00,,,0.00,weatherlink.com 1.10,2013-06-29 07:15:00,
2013-06-29 03:30:00,63.2,62.0,29.61,West,274,0.0,0.0,97,0.00,,,0.00,weatherlink.com 1.10,2013-06-29 07:30:00,
2013-06-29 03:45:00,62.7,62.0,29.61,West,274,0.0,0.0,96,0.00,,,0.00,weatherlink.com 1.10,2013-06-29 07:45:00,
2013-06-29 04:00:00,62.6,62.0,29.61,West,274,0.0,0.0,97,0.00,,,0.00,weatherlink.com 1.10,2013-06-29 08:00:00,
2013-06-29 04:15:00,62.5,62.0,29.60,West,274,0.0,0.0,97,0.00,,,0.00,weatherlink.com 1.10,2013-06-29 08:15:00,
2013-06-29 04:30:00,62.4,62.0,29.60,West,274,0.0,0.0,97,0.00,,,0.00,weatherlink.com 1.10,2013-06-29 08:30:00,
2013-06-29 04:45:00,62.1,61.0,29.61,West,274,0.0,0.0,97,0.00,,,0.00,weatherlink.com 1.10,2013-06-29 08:45:00,
2013-06-29 05:00:00,62.0,62.0,29.61,West,274,0.0,0.0,98,0.00,,,0.00,weatherlink.com 1.10,2013-06-29 09:00:00,
2013-06-29 05:15:00,61.9,61.0,29.61,West,274,0.0,0.0,98,0.00,,,0.00,weatherlink.com 1.10,2013-06-29 09:15:00,
2013-06-29 05:30:00,62.0,62.0,29.61,West,278,1.0,1.0,98,0.00,,,0.00,weatherlink.com 1.10,2013-06-29 09:30:00,
2013-06-29 05:45:00,62.3,62.0,29.61,West,274,1.0,1.0,98,0.00,,,0.00,weatherlink.com 1.10,2013-06-29 09:45:00,
2013-06-29 06:00:00,62.3,62.0,29.62,West,269,0.0,1.0,98,0.00,,,0.00,weatherlink.com 1.10,2013-06-29 10:00:00,
2013-06-29 06:15:00,62.1,61.0,29.62,West,266,0.0,1.0,97,0.00,,,0.00,weatherlink.com 1.10,2013-06-29 10:15:00,
2013-06-29 06:30:00,62.3,62.0,29.63,WSW,255,0.0,1.0,97,0.00,,,0.00,weatherlink.com 1.10,2013-06-29 10:30:00,
2013-06-29 06:45:00,62.4,61.0,29.63,West,262,0.0,3.0,96,0.00,,,0.00,weatherlink.com 1.10,2013-06-29 10:45:00,
2013-06-29 07:00:00,62.8,62.0,29.63,West,262,0.0,0.0,96,0.00,,,0.00,weatherlink.com 1.10,2013-06-29 11:00:00,
2013-06-29 07:15:00,63.2,62.0,29.63,West,262,0.0,0.0,95,0.00,,,0.00,weatherlink.com 1.10,2013-06-29 11:15:00,
2013-06-29 07:30:00,63.5,62.0,29.63,West,262,0.0,0.0,95,0.00,,,0.00,weatherlink.com 1.10,2013-06-29 11:30:00,
2013-06-29 07:45:00,63.7,62.0,29.64,West,274,0.0,2.0,93,0.00,,,0.00,weatherlink.com 1.10,2013-06-29 11:45:00,
2013-06-29 08:01:00,63.9,62.0,29.64,West,275,0.0,0.0,93,0.00,,,0.00,weatherlink.com 1.10,2013-06-29 12:01:00,
2013-06-29 08:16:00,64.0,62.0,29.64,West,274,0.0,0.0,93,0.00,,,0.00,weatherlink.com 1.10,2013-06-29 12:16:00,
2013-06-29 08:31:00,63.9,62.0,29.64,West,259,0.0,1.0,93,0.00,,,0.00,weatherlink.com 1.10,2013-06-29 12:31:00,
2013-06-29 08:46:00,64.4,63.0,29.64,West,259,0.0,0.0,94,0.00,,,0.00,weatherlink.com 1.10,2013-06-29 12:46:00,
2013-06-29 09:01:00,64.7,63.0,29.64,West,259,0.0,0.0,93,0.00,,,0.00,weatherlink.com 1.10,2013-06-29 13:01:00,
2013-06-29 09:16:00,65.1,63.0,29.65,West,259,0.0,0.0,92,0.00,,,0.00,weatherlink.com 1.10,2013-06-29 13:16:00,
2013-06-29 09:31:00,65.2,63.0,29.65,West,259,0.0,0.0,92,0.00,,,0.00,weatherlink.com 1.10,2013-06-29 13:31:00,
2013-06-29 09:46:00,65.4,63.0,29.65,West,259,0.0,0.0,93,0.00,,,0.00,weatherlink.com 1.10,2013-06-29 13:46:00,
2013-06-29 10:01:00,66.1,63.0,29.66,WSW,255,0.0,1.0,90,0.00,,,0.00,weatherlink.com 1.10,2013-06-29 14:01:00,
2013-06-29 10:16:00,66.6,64.0,29.66,WSW,242,0.0,1.0,90,0.00,,,0.00,weatherlink.com 1.10,2013-06-29 14:16:00,
2013-06-29 10:31:00,66.9,64.0,29.65,WSW,242,0.0,0.0,89,0.00,,,0.00,weatherlink.com 1.10,2013-06-29 14:31:00,
2013-06-29 10:46:00,67.7,64.0,29.65,WSW,248,0.0,1.0,87,0.00,,,0.00,weatherlink.com 1.10,2013-06-29 14:46:00,
2013-06-29 11:01:00,68.4,64.0,29.65,West,267,0.0,1.0,86,0.00,,,0.00,weatherlink.com 1.10,2013-06-29 15:01:00,
2013-06-29 11:16:00,69.6,65.0,29.65,South,169,0.0,2.0,84,0.00,,,0.00,weatherlink.com 1.10,2013-06-29 15:16:00,
2013-06-29 11:31:00,71.0,65.0,29.65,SE,125,1.0,1.0,80,0.00,,,0.00,weatherlink.com 1.10,2013-06-29 15:31:00,
2013-06-29 11:46:00,71.6,66.0,29.65,SE,143,0.0,0.0,81,0.00,,,0.00,weatherlink.com 1.10,2013-06-29 15:46:00,
2013-06-29 12:01:00,71.7,65.0,29.65,SE,129,0.0,2.0,78,0.00,,,0.00,weatherlink.com 1.10,2013-06-29 16:01:00,
2013-06-29 12:16:00,72.2,65.0,29.65,South,179,0.0,2.0,78,0.00,,,0.00,weatherlink.com 1.10,2013-06-29 16:16:00,
2013-06-29 12:31:00,72.6,65.0,29.66,SSW,203,0.0,1.0,78,0.00,,,0.00,weatherlink.com 1.10,2013-06-29 16:31:00,
2013-06-29 12:46:00,73.6,66.0,29.66,ESE,117,0.0,1.0,76,0.00,,,0.00,weatherlink.com 1.10,2013-06-29 16:46:00,
2013-06-29 13:01:00,75.4,66.0,29.65,SSW,211,0.0,2.0,72,0.00,,,0.00,weatherlink.com 1.10,2013-06-29 17:01:00,
2013-06-29 13:16:00,75.5,65.0,29.65,NW,305,0.0,2.0,71,0.00,,,0.00,weatherlink.com 1.10,2013-06-29 17:16:00,
2013-06-29 13:31:00,76.6,67.0,29.65,South,187,0.0,2.0,71,0.00,,,0.00,weatherlink.com 1.10,2013-06-29 17:31:00,
2013-06-29 13:46:00,78.9,66.0,29.65,SE,143,0.0,3.0,64,0.00,,,0.00,weatherlink.com 1.10,2013-06-29 17:46:00,
2013-06-29 14:01:00,78.9,65.0,29.64,ESE,119,0.0,1.0,63,0.00,,,0.00,weatherlink.com 1.10,2013-06-29 18:01:00,
2013-06-29 14:16:00,78.3,65.0,29.64,NNW,330,0.0,2.0,64,0.00,,,0.00,weatherlink.com 1.10,2013-06-29 18:16:00,
2013-06-29 14:31:00,78.3,65.0,29.64,SW,224,0.0,1.0,64,0.00,,,0.00,weatherlink.com 1.10,2013-06-29 18:31:00,
2013-06-29 14:46:00,77.8,66.0,29.64,West,262,0.0,1.0,67,0.00,,,0.00,weatherlink.com 1.10,2013-06-29 18:46:00,
2013-06-29 15:01:00,76.6,66.0,29.64,SW,222,0.0,1.0,69,0.00,,,0.00,weatherlink.com 1.10,2013-06-29 19:01:00,
2013-06-29 15:16:00,76.2,64.0,29.64,West,280,1.0,1.0,65,0.00,,,0.00,weatherlink.com 1.10,2013-06-29 19:16:00,
2013-06-29 15:31:00,76.7,65.0,29.64,NW,310,0.0,1.0,68,0.00,,,0.00,weatherlink.com 1.10,2013-06-29 19:31:00,
2013-06-29 15:46:00,76.1,66.0,29.64,WNW,290,0.0,3.0,71,0.00,,,0.00,weatherlink.com 1.10,2013-06-29 19:46:00,
2013-06-29 16:01:00,73.5,68.0,29.64,West,262,0.0,1.0,82,0.04,,,0.04,weatherlink.com 1.10,2013-06-29 20:01:00,
2013-06-29 16:16:00,69.9,66.0,29.65,WSW,256,1.0,2.0,88,0.04,,,0.04,weatherlink.com 1.10,2013-06-29 20:16:00,
2013-06-29 16:31:00,68.7,66.0,29.66,West,274,0.0,6.0,90,0.04,,,0.04,weatherlink.com 1.10,2013-06-29 20:31:00,
2013-06-29 16:46:00,68.0,64.0,29.68,WNW,288,3.0,5.0,88,0.04,,,0.04,weatherlink.com 1.10,2013-06-29 20:46:00,
2013-06-29 17:02:00,67.5,65.0,29.68,West,281,0.0,0.0,91,0.06,,,0.10,weatherlink.com 1.10,2013-06-29 21:02:00,
2013-06-29 17:17:00,66.5,64.0,29.69,ESE,113,0.0,1.0,92,0.12,,,0.16,weatherlink.com 1.10,2013-06-29 21:17:00,
2013-06-29 17:33:00,65.9,64.0,29.69,ESE,114,0.0,0.0,94,0.12,,,0.16,weatherlink.com 1.10,2013-06-29 21:33:00,
2013-06-29 17:47:00,66.1,65.0,29.69,ESE,115,0.0,0.0,96,0.12,,,0.16,weatherlink.com 1.10,2013-06-29 21:47:00,
2013-06-29 18:02:00,66.2,65.0,29.68,ESE,114,0.0,1.0,97,0.05,,,0.16,weatherlink.com 1.10,2013-06-29 22:02:00,
2013-06-29 18:17:00,66.4,66.0,29.69,WNW,300,0.0,0.0,97,0.00,,,0.16,weatherlink.com 1.10,2013-06-29 22:17:00,
2013-06-29 18:32:00,66.6,66.0,29.69,WNW,300,0.0,0.0,97,0.00,,,0.16,weatherlink.com 1.10,2013-06-29 22:32:00,
2013-06-29 18:47:00,66.8,66.0,29.70,WNW,301,0.0,0.0,97,0.02,,,0.18,weatherlink.com 1.10,2013-06-29 22:47:00,
2013-06-29 19:02:00,66.7,66.0,29.70,WNW,301,0.0,0.0,97,0.05,,,0.21,weatherlink.com 1.10,2013-06-29 23:02:00,
2013-06-29 19:17:00,66.5,66.0,29.69,WNW,300,0.0,0.0,97,0.07,,,0.23,weatherlink.com 1.10,2013-06-29 23:17:00,
2013-06-29 19:32:00,65.8,65.0,29.70,WNW,301,0.0,1.0,96,0.10,,,0.26,weatherlink.com 1.10,2013-06-29 23:32:00,
2013-06-29 19:47:00,65.5,65.0,29.71,WNW,301,0.0,0.0,97,0.12,,,0.30,weatherlink.com 1.10,2013-06-29 23:47:00,
2013-06-29 20:02:00,65.4,65.0,29.71,WNW,301,0.0,0.0,97,0.09,,,0.30,weatherlink.com 1.10,2013-06-30 00:02:00,
2013-06-29 20:17:00,65.4,65.0,29.71,WNW,301,0.0,0.0,98,0.07,,,0.30,weatherlink.com 1.10,2013-06-30 00:17:00,
2013-06-29 20:32:00,65.5,65.0,29.71,SSE,165,0.0,1.0,98,0.04,,,0.30,weatherlink.com 1.10,2013-06-30 00:32:00,
2013-06-29 20:47:00,65.3,65.0,29.72,SSE,165,0.0,0.0,98,0.01,,,0.31,weatherlink.com 1.10,2013-06-30 00:47:00,
2013-06-29 21:02:00,65.3,65.0,29.72,South,191,0.0,0.0,98,0.02,,,0.32,weatherlink.com 1.10,2013-06-30 01:02:00,
2013-06-29 21:17:00,65.3,65.0,29.72,South,183,0.0,1.0,98,0.05,,,0.35,weatherlink.com 1.10,2013-06-30 01:17:00,
2013-06-29 21:32:00,65.2,65.0,29.73,South,172,0.0,2.0,98,0.10,,,0.40,weatherlink.com 1.10,2013-06-30 01:32:00,
2013-06-29 21:47:00,63.8,63.0,29.74,SE,139,0.0,2.0,96,0.11,,,0.42,weatherlink.com 1.10,2013-06-30 01:47:00,
2013-06-29 22:02:00,63.3,63.0,29.75,SE,139,0.0,1.0,97,0.11,,,0.43,weatherlink.com 1.10,2013-06-30 02:02:00,
2013-06-29 22:17:00,63.0,62.0,29.75,SSE,151,0.0,0.0,97,0.08,,,0.43,weatherlink.com 1.10,2013-06-30 02:17:00,
2013-06-29 22:32:00,63.0,62.0,29.75,SE,142,0.0,1.0,97,0.04,,,0.44,weatherlink.com 1.10,2013-06-30 02:32:00,
2013-06-29 22:47:00,63.0,63.0,29.76,SSE,158,0.0,0.0,98,0.02,,,0.44,weatherlink.com 1.10,2013-06-30 02:47:00,
2013-06-29 23:02:00,63.1,63.0,29.76,SSE,158,0.0,0.0,98,0.01,,,0.44,weatherlink.com 1.10,2013-06-30 03:02:00,
2013-06-29 23:17:00,63.1,63.0,29.77,SSE,158,0.0,0.0,98,0.01,,,0.44,weatherlink.com 1.10,2013-06-30 03:17:00,
2013-06-29 23:34:00,63.3,63.0,29.77,SSE,158,0.0,0.0,98,0.00,,,0.44,weatherlink.com 1.10,2013-06-30 03:34:00,
2013-06-29 23:47:00,63.3,63.0,29.77,SSE,158,0.0,0.0,98,0.00,,,0.44,weatherlink.com 1.10,2013-06-30 03:47:00,